Airfield :
LOGIN :

Register | Disclaimer

   EN    FR    IT 

 










Legend :    VFR   Marginal VFR   IFR   Intensive IFR   Very Intensive IFR
Visi :
Ceiling :
>= 8 km
>= 3000ft
5 to 8 km
1000 to 3000 ft
1500m to 5 km
500 to 1000 ft
800 to 1500m
200 to 500 ft
< 800m
< 200 ft
Symbols :   Thunderstorms  Fog  Heavy snow  Heavy precipitations  Wind > 20 kt
SIGMETs :     Misc.  Thunderstorms  Icing  Turbulence  Mountain Waves  Volcanic Ashes






- Airport Elevation : 13 ft
- IATA code : OST


EBOS - Oostend bruges Int.

CURRENT METAR :
  • 071520Z 30007KT 250V330 9999 FEW025 10/04 Q1019 NOSIG

EXPIRED METARs :
  • 071450Z 29008KT 9999 FEW025 10/03 Q1019 NOSIG
  • 071420Z 30007KT 270V330 9999 FEW024 10/04 Q1019 NOSIG
  • 071350Z 29009KT 9999 FEW024 10/04 Q1019 NOSIG
  • 071320Z 29009KT 260V320 9999 FEW024 10/04 Q1018 NOSIG
  • 071250Z 28011KT 9999 FEW024 10/05 Q1018 NOSIG

TAF TAF EBOS
Valid from the 07 at 12:00 until the 08 at 18:00 UTC


071110Z 0712/0818 27008KT 9999 SCT030
PROB40
TEMPO 0809/0812 16015G25KT 4000 RA RADZ BKN008



MET'MAP, your aeronautical weather chart ! - Copyright ORBIFLY December 2007 - Disclaimer

ORBIFLY MET'MAP TEAM :

Programming & Development : Alexandra Zaïnal
Concept & original design : Baudouin d'Aumeries
Assistance for programming : Marc-Olivier Méhu
Technical & hardware support : Manuel Goepfert

Contact : metmap@orbifly.com




SOURCES & CREDITS :

   NOAA